Time;durP1;ratioP1;P1;durP2;ratioP2;P2;SDS_P1;SDS_P2;PMS_P1;PMS_P2;Temp;Humidity;BMP_temperature;BMP_pressure;BME280_temperature;BME280_humidity;BME280_pressure;Samples;Min_cycle;Max_cycle;Signal;HPM_P1;HPM_P2
2022/02/19 00:02:11;;;;;;;;;;;8.50;99.90;;;;;;4987215;28;19917;-90
2022/02/19 00:04:36;;;;;;;;;;;8.40;99.90;;;;;;4988350;28;19921;-90
2022/02/19 00:07:03;;;;;;;;;;;8.40;99.90;;;;;;5005537;28;19960;-90
2022/02/19 00:09:29;;;;;;;;;;;8.40;99.90;;;;;;5006026;28;19906;-90
2022/02/19 00:11:55;;;;;;;;;;;8.50;99.90;;;;;;4988368;28;19905;-90
2022/02/19 00:14:20;;;;;;;;;;;8.40;99.90;;;;;;4988691;28;19913;-90
2022/02/19 00:16:46;;;;;;;;;;;8.30;99.90;;;;;;5005851;28;20150;-90
2022/02/19 00:19:11;;;;;;;;;;;8.30;99.90;;;;;;4988642;28;19921;-90
2022/02/19 00:21:37;;;;;;;;;;;8.40;99.90;;;;;;5005717;28;19921;-90
2022/02/19 00:24:03;;;;;;;;;;;8.30;99.90;;;;;;4989233;28;19952;-90
2022/02/19 00:26:28;;;;;;;;;;;8.30;99.90;;;;;;4987459;28;19968;-90
2022/02/19 00:28:54;;;;;;;;;;;8.30;99.90;;;;;;4987599;28;19913;-90
2022/02/19 00:31:20;;;;;;;;;;;8.40;99.90;;;;;;5012454;28;19940;-90
2022/02/19 00:33:48;;;;;;;;;;;8.30;99.90;;;;;;4985272;28;19921;-90
2022/02/19 00:36:13;;;;;;;;;;;8.30;99.90;;;;;;5004491;28;19981;-89
2022/02/19 00:38:39;;;;;;;;;;;8.30;99.90;;;;;;4988404;28;19905;-90
2022/02/19 00:41:05;;;;;;;;;;;8.30;99.90;;;;;;5005358;28;19905;-90
2022/02/19 00:43:30;;;;;;;;;;;8.20;99.90;;;;;;5004898;28;19913;-90
2022/02/19 00:45:56;;;;;;;;;;;8.30;99.90;;;;;;5004955;28;20195;-90
2022/02/19 00:48:22;;;;;;;;;;;8.20;99.90;;;;;;5004787;28;19921;-90
2022/02/19 00:50:48;;;;;;;;;;;8.20;99.90;;;;;;5005298;28;19906;-90
2022/02/19 00:53:15;;;;;;;;;;;8.20;99.90;;;;;;4987866;28;20230;-90
2022/02/19 00:55:44;;;;;;;;;;;8.20;99.90;;;;;;5006547;28;19913;-93
2022/02/19 00:58:09;;;;;;;;;;;8.20;99.90;;;;;;5004875;28;20098;-90
2022/02/19 01:00:35;;;;;;;;;;;8.10;99.90;;;;;;5005069;28;19910;-90
2022/02/19 01:03:01;;;;;;;;;;;8.10;99.90;;;;;;5004953;28;19914;-90
2022/02/19 01:05:27;;;;;;;;;;;8.00;99.90;;;;;;5005123;28;20194;-90
2022/02/19 01:07:54;;;;;;;;;;;8.10;99.90;;;;;;4987848;28;19914;-90
2022/02/19 01:10:20;;;;;;;;;;;8.00;99.90;;;;;;5003652;28;20146;-91
2022/02/19 01:12:45;;;;;;;;;;;8.00;99.90;;;;;;4986790;28;19913;-90
2022/02/19 01:15:11;;;;;;;;;;;8.10;99.90;;;;;;4987534;28;19912;-90
2022/02/19 01:17:37;;;;;;;;;;;8.10;99.90;;;;;;4987181;28;19977;-89
2022/02/19 01:20:04;;;;;;;;;;;8.00;99.90;;;;;;4987519;28;20136;-90
2022/02/19 01:22:30;;;;;;;;;;;8.00;99.90;;;;;;4987921;28;19917;-90
2022/02/19 01:24:55;;;;;;;;;;;8.00;99.90;;;;;;4986255;28;20189;-90
2022/02/19 01:27:21;;;;;;;;;;;7.90;99.90;;;;;;5005489;28;19906;-90
2022/02/19 01:29:46;;;;;;;;;;;8.00;99.90;;;;;;5004709;28;20044;-89
2022/02/19 01:32:12;;;;;;;;;;;7.90;99.90;;;;;;5004156;28;19906;-89
2022/02/19 01:34:40;;;;;;;;;;;7.90;99.90;;;;;;4997540;28;19940;-91
2022/02/19 01:37:06;;;;;;;;;;;7.80;99.90;;;;;;4998085;28;19910;-90
2022/02/19 01:39:31;;;;;;;;;;;7.90;99.90;;;;;;5004314;28;19974;-90
2022/02/19 01:41:57;;;;;;;;;;;7.90;99.90;;;;;;4987002;28;19910;-90
2022/02/19 01:44:32;;;;;;;;;;;8.00;99.90;;;;;;4988673;28;20193;-90
2022/02/19 01:47:00;;;;;;;;;;;8.00;99.90;;;;;;4987217;28;19917;-90
2022/02/19 01:49:26;;;;;;;;;;;8.10;99.90;;;;;;4986907;28;19914;-90
2022/02/19 01:51:51;;;;;;;;;;;8.10;99.90;;;;;;5002586;28;19965;-90
2022/02/19 01:54:17;;;;;;;;;;;8.10;99.90;;;;;;5004370;28;20178;-90
2022/02/19 01:56:42;;;;;;;;;;;8.10;99.90;;;;;;5003912;28;19906;-90
2022/02/19 01:59:08;;;;;;;;;;;8.10;99.90;;;;;;4986744;28;20166;-91
2022/02/19 02:01:34;;;;;;;;;;;8.10;99.90;;;;;;4986531;28;19933;-90
2022/02/19 02:03:59;;;;;;;;;;;8.10;99.90;;;;;;4987763;28;19917;-90
2022/02/19 02:06:25;;;;;;;;;;;8.10;99.90;;;;;;5004021;28;19906;-90
2022/02/19 02:08:51;;;;;;;;;;;8.20;99.90;;;;;;4985795;28;19906;-90
2022/02/19 02:11:16;;;;;;;;;;;8.20;99.90;;;;;;5003400;28;19906;-90
2022/02/19 02:13:42;;;;;;;;;;;8.20;99.90;;;;;;4985737;28;19905;-91
2022/02/19 02:16:08;;;;;;;;;;;8.20;99.90;;;;;;4985863;28;19937;-90
2022/02/19 02:18:34;;;;;;;;;;;8.20;99.90;;;;;;5003554;28;20115;-91
2022/02/19 02:21:00;;;;;;;;;;;8.20;99.90;;;;;;4985421;28;19917;-90
2022/02/19 02:23:25;;;;;;;;;;;8.10;99.90;;;;;;5003012;28;19921;-90
2022/02/19 02:25:52;;;;;;;;;;;8.10;99.90;;;;;;4986158;28;19953;-90
2022/02/19 02:28:19;;;;;;;;;;;8.10;99.90;;;;;;5004075;28;19906;-90
2022/02/19 02:30:44;;;;;;;;;;;8.00;99.90;;;;;;5004432;28;19955;-90
2022/02/19 02:33:11;;;;;;;;;;;8.00;99.90;;;;;;5003615;28;20198;-90
2022/02/19 02:35:37;;;;;;;;;;;8.00;99.90;;;;;;5003218;28;19918;-90
2022/02/19 02:38:04;;;;;;;;;;;8.10;99.90;;;;;;4985381;28;19906;-90
2022/02/19 02:40:30;;;;;;;;;;;8.00;99.90;;;;;;4986119;28;20305;-90
2022/02/19 02:42:56;;;;;;;;;;;8.00;99.90;;;;;;4986012;28;19914;-90
2022/02/19 02:45:22;;;;;;;;;;;7.90;99.90;;;;;;4987347;28;20248;-90
2022/02/19 02:47:47;;;;;;;;;;;7.80;99.90;;;;;;5003356;28;19906;-90
2022/02/19 02:50:13;;;;;;;;;;;7.80;99.90;;;;;;4985786;28;19906;-90
2022/02/19 02:52:40;;;;;;;;;;;7.70;99.90;;;;;;4984825;28;20138;-90
2022/02/19 02:55:07;;;;;;;;;;;7.60;99.90;;;;;;4985692;28;19913;-90
2022/02/19 02:57:36;;;;;;;;;;;7.60;99.90;;;;;;4987101;28;19974;-90
2022/02/19 03:00:03;;;;;;;;;;;7.60;99.90;;;;;;5003143;28;19905;-90
2022/02/19 03:02:29;;;;;;;;;;;7.50;99.90;;;;;;4985917;28;19920;-90
2022/02/19 03:04:56;;;;;;;;;;;7.50;99.90;;;;;;5004070;28;19906;-90
2022/02/19 03:07:21;;;;;;;;;;;7.40;99.90;;;;;;5003046;28;19906;-90
2022/02/19 03:09:47;;;;;;;;;;;7.40;99.90;;;;;;5002978;28;19906;-90
2022/02/19 03:12:12;;;;;;;;;;;7.30;99.90;;;;;;5004108;28;19906;-94
2022/02/19 03:14:38;;;;;;;;;;;7.30;99.90;;;;;;4983476;28;20314;-90
2022/02/19 03:17:04;;;;;;;;;;;7.20;99.90;;;;;;4986124;28;20133;-90
2022/02/19 03:19:29;;;;;;;;;;;7.20;99.90;;;;;;5004026;28;19906;-91
2022/02/19 03:21:55;;;;;;;;;;;7.20;99.90;;;;;;5003064;28;19918;-92
2022/02/19 03:24:20;;;;;;;;;;;7.20;99.90;;;;;;4989041;28;19897;-89
2022/02/19 03:26:46;;;;;;;;;;;7.20;99.90;;;;;;4983725;28;19989;-90
2022/02/19 03:29:11;;;;;;;;;;;7.20;99.90;;;;;;5002092;28;19929;-90
2022/02/19 03:31:37;;;;;;;;;;;7.20;99.90;;;;;;5001916;28;20125;-90
2022/02/19 03:34:03;;;;;;;;;;;7.20;99.90;;;;;;5002189;28;19925;-90
2022/02/19 03:36:28;;;;;;;;;;;7.30;99.90;;;;;;4988780;28;19905;-90
2022/02/19 03:38:56;;;;;;;;;;;7.20;99.90;;;;;;5006436;28;19929;-90
2022/02/19 03:41:22;;;;;;;;;;;7.20;99.90;;;;;;4989305;28;19906;-90
2022/02/19 03:43:48;;;;;;;;;;;7.20;99.90;;;;;;4988761;28;19921;-90
2022/02/19 03:46:13;;;;;;;;;;;7.20;99.90;;;;;;4988719;28;19906;-89
2022/02/19 03:48:39;;;;;;;;;;;7.10;99.90;;;;;;4988788;28;19960;-90
2022/02/19 03:51:05;;;;;;;;;;;7.10;99.90;;;;;;4988804;28;19933;-90
2022/02/19 03:53:31;;;;;;;;;;;7.00;99.90;;;;;;5006412;28;20127;-90
2022/02/19 03:55:56;;;;;;;;;;;7.00;99.90;;;;;;5005706;28;20195;-90
2022/02/19 03:58:22;;;;;;;;;;;7.00;99.90;;;;;;5005761;28;19910;-90
2022/02/19 04:00:47;;;;;;;;;;;7.00;99.90;;;;;;4989023;28;19906;-89
2022/02/19 04:03:13;;;;;;;;;;;6.90;99.90;;;;;;5005763;28;19977;-89
2022/02/19 04:05:39;;;;;;;;;;;6.90;99.90;;;;;;4988641;28;19929;-90
2022/02/19 04:08:06;;;;;;;;;;;6.90;99.90;;;;;;5005731;28;19909;-90
2022/02/19 04:10:32;;;;;;;;;;;6.90;99.90;;;;;;4988660;28;19913;-90
2022/02/19 04:12:57;;;;;;;;;;;6.90;99.90;;;;;;5006627;28;19905;-89
2022/02/19 04:15:23;;;;;;;;;;;6.80;99.90;;;;;;5005533;28;20158;-90
2022/02/19 04:17:48;;;;;;;;;;;6.70;99.90;;;;;;5005509;28;19933;-90
2022/02/19 04:20:15;;;;;;;;;;;6.70;99.90;;;;;;4989399;28;19914;-91
2022/02/19 04:22:41;;;;;;;;;;;6.70;99.90;;;;;;5005404;28;19926;-90
2022/02/19 04:25:10;;;;;;;;;;;6.70;99.90;;;;;;4987995;28;20186;-90
2022/02/19 04:27:35;;;;;;;;;;;6.60;99.90;;;;;;5005286;28;19913;-90
2022/02/19 04:30:02;;;;;;;;;;;6.60;99.90;;;;;;4988275;28;19981;-90
2022/02/19 04:32:28;;;;;;;;;;;6.60;99.90;;;;;;5004410;28;19921;-90
2022/02/19 04:34:53;;;;;;;;;;;6.50;99.90;;;;;;4988321;28;20106;-90
2022/02/19 04:37:19;;;;;;;;;;;6.50;99.90;;;;;;4988297;28;19912;-90
2022/02/19 04:39:46;;;;;;;;;;;6.50;99.90;;;;;;5005330;28;19977;-90
2022/02/19 04:42:11;;;;;;;;;;;6.40;99.90;;;;;;5005604;28;19953;-90
2022/02/19 04:44:38;;;;;;;;;;;6.40;99.90;;;;;;5004804;28;19937;-90
2022/02/19 04:47:06;;;;;;;;;;;6.30;99.90;;;;;;4987224;28;20032;-90
2022/02/19 04:49:32;;;;;;;;;;;6.30;99.90;;;;;;4987495;28;19981;-90
2022/02/19 04:51:57;;;;;;;;;;;6.20;99.90;;;;;;4988228;28;20199;-89
2022/02/19 04:54:23;;;;;;;;;;;6.20;99.90;;;;;;4998758;28;19984;-90
2022/02/19 04:56:48;;;;;;;;;;;6.20;99.90;;;;;;5005455;28;19910;-90
2022/02/19 04:59:16;;;;;;;;;;;6.20;99.90;;;;;;5005633;28;19937;-89
2022/02/19 05:01:42;;;;;;;;;;;6.20;99.90;;;;;;4987600;28;19955;-90
2022/02/19 05:04:07;;;;;;;;;;;6.20;99.90;;;;;;4987475;28;19917;-90
2022/02/19 05:06:33;;;;;;;;;;;6.20;99.90;;;;;;5004622;28;20129;-90
2022/02/19 05:08:59;;;;;;;;;;;6.10;99.90;;;;;;4986523;28;19937;-89
2022/02/19 05:11:25;;;;;;;;;;;6.10;99.90;;;;;;5004848;28;19906;-92
2022/02/19 05:13:52;;;;;;;;;;;6.10;99.90;;;;;;4984016;28;19910;-90
2022/02/19 05:16:17;;;;;;;;;;;6.00;99.90;;;;;;5003644;28;20409;-90
2022/02/19 05:18:43;;;;;;;;;;;6.10;99.90;;;;;;4985812;28;19913;-90
2022/02/19 05:21:08;;;;;;;;;;;6.00;99.90;;;;;;5003439;28;19910;-90
2022/02/19 05:23:35;;;;;;;;;;;6.00;99.90;;;;;;5001321;28;20206;-90
2022/02/19 05:26:01;;;;;;;;;;;6.00;99.90;;;;;;4987168;28;20205;-90
2022/02/19 05:28:26;;;;;;;;;;;6.00;99.90;;;;;;4987079;28;19914;-90
2022/02/19 05:30:56;;;;;;;;;;;6.10;99.90;;;;;;4987218;28;20003;-90
2022/02/19 05:33:23;;;;;;;;;;;6.20;99.90;;;;;;5004431;28;19913;-91
2022/02/19 05:35:48;;;;;;;;;;;6.20;99.90;;;;;;5005462;28;20103;-90
2022/02/19 05:38:14;;;;;;;;;;;6.30;99.90;;;;;;4986583;28;20210;-90
2022/02/19 05:40:39;;;;;;;;;;;6.50;99.90;;;;;;5003876;28;19946;-91
2022/02/19 05:43:05;;;;;;;;;;;6.60;99.90;;;;;;4983819;28;20275;-90
2022/02/19 05:45:31;;;;;;;;;;;6.60;99.90;;;;;;5004548;28;20086;-91
2022/02/19 05:47:58;;;;;;;;;;;6.70;99.90;;;;;;4986452;28;19905;-90
2022/02/19 05:50:24;;;;;;;;;;;6.80;99.90;;;;;;4986798;28;20009;-90
2022/02/19 05:52:50;;;;;;;;;;;6.80;99.90;;;;;;4986953;28;20105;-90
2022/02/19 05:55:15;;;;;;;;;;;6.90;99.90;;;;;;4986814;28;19906;-90
2022/02/19 05:57:42;;;;;;;;;;;6.90;99.90;;;;;;5003773;28;19910;-90
2022/02/19 06:00:08;;;;;;;;;;;6.80;99.90;;;;;;5004345;28;20241;-91
2022/02/19 06:02:33;;;;;;;;;;;6.80;99.90;;;;;;5005478;28;19913;-91
2022/02/19 06:04:59;;;;;;;;;;;6.70;99.90;;;;;;4986801;28;19948;-91
2022/02/19 06:07:24;;;;;;;;;;;6.70;99.90;;;;;;5005246;28;19914;-90
2022/02/19 06:09:50;;;;;;;;;;;6.60;99.90;;;;;;4988696;28;19909;-91
2022/02/19 06:12:15;;;;;;;;;;;6.50;99.90;;;;;;5003673;28;19906;-91
2022/02/19 06:14:41;;;;;;;;;;;6.40;99.90;;;;;;4986491;28;20198;-90
2022/02/19 06:17:06;;;;;;;;;;;6.30;99.90;;;;;;5003243;28;20031;-91
2022/02/19 06:19:32;;;;;;;;;;;6.20;99.90;;;;;;4986786;28;19970;-90
2022/02/19 06:21:58;;;;;;;;;;;6.20;99.90;;;;;;4986528;28;19914;-91
2022/02/19 06:24:23;;;;;;;;;;;6.10;99.90;;;;;;4985511;28;19910;-91
2022/02/19 06:26:49;;;;;;;;;;;6.00;99.90;;;;;;5003717;28;19921;-91
2022/02/19 06:29:14;;;;;;;;;;;5.90;99.90;;;;;;5002554;28;19906;-91
2022/02/19 06:31:40;;;;;;;;;;;5.90;99.90;;;;;;4986093;28;19984;-91
2022/02/19 06:34:05;;;;;;;;;;;5.80;99.90;;;;;;4987276;28;19914;-91
2022/02/19 06:36:31;;;;;;;;;;;5.80;99.90;;;;;;5001770;28;19933;-91
2022/02/19 06:38:56;;;;;;;;;;;5.70;99.90;;;;;;4985709;28;20363;-92
2022/02/19 06:41:22;;;;;;;;;;;5.70;99.90;;;;;;5002671;28;19943;-91
2022/02/19 06:43:48;;;;;;;;;;;5.60;99.90;;;;;;4986214;28;20206;-91
2022/02/19 06:46:13;;;;;;;;;;;5.60;99.90;;;;;;4986895;28;19977;-91
2022/02/19 06:48:39;;;;;;;;;;;5.60;99.90;;;;;;5003341;28;19906;-91
2022/02/19 06:51:04;;;;;;;;;;;5.60;99.90;;;;;;5002308;28;19989;-92
2022/02/19 06:53:30;;;;;;;;;;;5.50;99.90;;;;;;4985503;28;19941;-91
2022/02/19 06:55:55;;;;;;;;;;;5.60;99.90;;;;;;4986818;28;19906;-92
2022/02/19 06:58:21;;;;;;;;;;;5.50;99.90;;;;;;4985961;28;19906;-92
2022/02/19 07:00:51;;;;;;;;;;;5.60;99.90;;;;;;4986635;28;20308;-93
2022/02/19 07:03:17;;;;;;;;;;;5.60;99.90;;;;;;4986888;28;19973;-93
2022/02/19 07:05:43;;;;;;;;;;;5.60;99.90;;;;;;4985929;28;20181;-92
2022/02/19 07:08:09;;;;;;;;;;;5.60;99.90;;;;;;4978074;28;20514;-92
2022/02/19 07:10:34;;;;;;;;;;;5.60;99.90;;;;;;4974057;28;20374;-93
2022/02/19 07:13:00;;;;;;;;;;;5.60;99.90;;;;;;4974713;28;19914;-92
2022/02/19 07:15:26;;;;;;;;;;;5.60;99.90;;;;;;4972446;28;19929;-93
2022/02/19 07:17:53;;;;;;;;;;;5.60;99.90;;;;;;4983398;28;19918;-92
2022/02/19 07:20:20;;;;;;;;;;;5.50;99.90;;;;;;4981745;28;19917;-93
2022/02/19 07:22:46;;;;;;;;;;;5.50;99.90;;;;;;4975427;28;20237;-93
2022/02/19 07:25:12;;;;;;;;;;;5.50;99.90;;;;;;4991348;28;20242;-93
2022/02/19 07:27:38;;;;;;;;;;;5.50;99.90;;;;;;4976527;28;19918;-93
2022/02/19 07:30:05;;;;;;;;;;;5.50;99.90;;;;;;4981724;28;19913;-92
2022/02/19 07:32:30;;;;;;;;;;;5.50;99.90;;;;;;4986439;28;19985;-93
2022/02/19 07:34:56;;;;;;;;;;;5.50;99.90;;;;;;4984697;28;20205;-93
2022/02/19 07:37:21;;;;;;;;;;;5.50;99.90;;;;;;4985600;28;20008;-93
2022/02/19 07:39:47;;;;;;;;;;;5.50;99.90;;;;;;4986313;28;19906;-93
2022/02/19 07:42:12;;;;;;;;;;;5.50;99.90;;;;;;4977311;28;20314;-93
2022/02/19 07:44:40;;;;;;;;;;;5.50;99.90;;;;;;4978583;28;19917;-92
2022/02/19 07:47:06;;;;;;;;;;;5.50;99.90;;;;;;4977540;28;19909;-92
2022/02/19 08:00:29;;;;;;;;;;;6.00;99.90;;;;;;4998769;28;19916;-93
2022/02/19 08:02:55;;;;;;;;;;;6.10;99.90;;;;;;4998148;28;19961;-93
2022/02/19 08:05:20;;;;;;;;;;;6.10;99.90;;;;;;4978770;28;19949;-93
2022/02/19 08:07:46;;;;;;;;;;;6.30;99.90;;;;;;4978925;28;19910;-92
2022/02/19 08:10:12;;;;;;;;;;;6.40;99.90;;;;;;4979269;28;19989;-92
2022/02/19 08:12:38;;;;;;;;;;;6.50;99.90;;;;;;4978787;28;20000;-92
2022/02/19 08:15:04;;;;;;;;;;;6.60;99.90;;;;;;4984581;28;19920;-91
2022/02/19 08:17:31;;;;;;;;;;;6.70;99.90;;;;;;4996988;28;19973;-93
2022/02/19 08:19:57;;;;;;;;;;;6.80;99.90;;;;;;4996835;28;19912;-92
2022/02/19 08:22:23;;;;;;;;;;;6.90;99.90;;;;;;4999813;28;19906;-92
2022/02/19 08:24:48;;;;;;;;;;;7.00;99.90;;;;;;5001182;28;19968;-92
2022/02/19 08:27:14;;;;;;;;;;;7.20;99.90;;;;;;4990202;28;19908;-91
2022/02/19 08:29:40;;;;;;;;;;;7.30;99.90;;;;;;5000266;28;19898;-91
2022/02/19 08:32:05;;;;;;;;;;;7.40;99.90;;;;;;5000219;28;19909;-91
2022/02/19 08:34:31;;;;;;;;;;;7.50;99.90;;;;;;5014299;28;19953;-93
2022/02/19 08:36:57;;;;;;;;;;;7.60;99.90;;;;;;4999576;28;19949;-92
2022/02/19 08:39:23;;;;;;;;;;;7.70;99.90;;;;;;4999930;28;19910;-91
2022/02/19 08:41:49;;;;;;;;;;;7.80;99.90;;;;;;4995936;28;20375;-91
2022/02/19 08:44:14;;;;;;;;;;;8.00;99.90;;;;;;4987831;28;19925;-91
2022/02/19 08:46:40;;;;;;;;;;;8.20;99.90;;;;;;5000234;28;20173;-93
2022/02/19 08:49:05;;;;;;;;;;;8.50;99.90;;;;;;4999161;28;19909;-92
2022/02/19 08:51:31;;;;;;;;;;;8.90;99.90;;;;;;4999531;28;19902;-92
2022/02/19 08:53:56;;;;;;;;;;;9.00;99.90;;;;;;4984514;28;19944;-93
2022/02/19 08:56:22;;;;;;;;;;;9.30;99.90;;;;;;4996370;28;20445;-93
2022/02/19 08:58:48;;;;;;;;;;;9.50;99.90;;;;;;4996286;28;19910;-91
2022/02/19 09:01:13;;;;;;;;;;;9.70;99.90;;;;;;4980554;28;19912;-92
2022/02/19 09:03:39;;;;;;;;;;;9.90;99.90;;;;;;4988195;28;19913;-92
2022/02/19 09:06:05;;;;;;;;;;;10.00;99.90;;;;;;4987430;28;20190;-92
2022/02/19 09:08:30;;;;;;;;;;;9.80;99.90;;;;;;4995565;28;20000;-93
2022/02/19 09:10:56;;;;;;;;;;;9.50;99.90;;;;;;4977931;28;19921;-90
2022/02/19 09:13:22;;;;;;;;;;;9.30;99.90;;;;;;4986902;28;19932;-92
2022/02/19 09:15:49;;;;;;;;;;;9.10;99.90;;;;;;4977513;28;19910;-93
2022/02/19 09:18:15;;;;;;;;;;;9.00;99.90;;;;;;4971336;28;19910;-93
2022/02/19 09:20:41;;;;;;;;;;;8.90;99.90;;;;;;4976888;28;19924;-92
2022/02/19 09:23:06;;;;;;;;;;;8.80;99.90;;;;;;4976632;28;20174;-90
2022/02/19 09:25:32;;;;;;;;;;;8.80;99.90;;;;;;4976043;28;19921;-91
2022/02/19 09:27:58;;;;;;;;;;;8.70;99.90;;;;;;4993791;28;19916;-92
2022/02/19 09:30:24;;;;;;;;;;;8.60;99.90;;;;;;4976399;28;20409;-91
2022/02/19 09:32:50;;;;;;;;;;;8.40;99.90;;;;;;4975429;28;20371;-91
2022/02/19 09:35:16;;;;;;;;;;;8.40;99.90;;;;;;4973463;28;19954;-91
2022/02/19 09:37:41;;;;;;;;;;;8.50;99.90;;;;;;4973474;28;19960;-91
2022/02/19 09:40:07;;;;;;;;;;;8.50;99.90;;;;;;4973194;28;20405;-91
2022/02/19 09:42:35;;;;;;;;;;;8.70;99.90;;;;;;4973611;28;20287;-93
2022/02/19 09:45:02;;;;;;;;;;;8.80;99.90;;;;;;4974125;28;20129;-93
2022/02/19 09:47:28;;;;;;;;;;;8.80;99.90;;;;;;4973171;28;19945;-91
2022/02/19 09:49:55;;;;;;;;;;;8.90;99.90;;;;;;4973005;28;19980;-92
2022/02/19 09:52:20;;;;;;;;;;;9.00;99.90;;;;;;4975806;28;19910;-94
2022/02/19 09:54:46;;;;;;;;;;;9.20;99.90;;;;;;4982950;28;19914;-92
2022/02/19 09:57:12;;;;;;;;;;;9.30;99.90;;;;;;4973109;28;19910;-92
2022/02/19 09:59:37;;;;;;;;;;;9.40;99.90;;;;;;4973113;28;20280;-92
2022/02/19 10:02:06;;;;;;;;;;;9.60;99.90;;;;;;4972634;28;19924;-93
2022/02/19 10:04:32;;;;;;;;;;;9.60;99.90;;;;;;4973237;28;20302;-93
2022/02/19 10:06:59;;;;;;;;;;;9.70;99.90;;;;;;4974221;28;20001;-92
2022/02/19 10:09:25;;;;;;;;;;;9.80;99.90;;;;;;4972942;28;20029;-93
2022/02/19 10:11:51;;;;;;;;;;;9.90;99.90;;;;;;4973062;28;20410;-93
2022/02/19 10:14:24;;;;;;;;;;;9.90;99.90;;;;;;4972979;28;19996;-92
2022/02/19 10:17:11;;;;;;;;;;;10.00;99.90;;;;;;4974364;28;19914;-92
2022/02/19 10:19:57;;;;;;;;;;;10.00;99.90;;;;;;4973777;28;19910;-92
2022/02/19 10:22:27;;;;;;;;;;;10.00;99.90;;;;;;4972730;28;19921;-92
2022/02/19 10:24:56;;;;;;;;;;;10.00;99.90;;;;;;4983271;28;20245;-92
2022/02/19 10:27:21;;;;;;;;;;;10.10;99.90;;;;;;4973723;28;19910;-91
2022/02/19 10:29:52;;;;;;;;;;;10.10;99.90;;;;;;4971887;28;19917;-90
2022/02/19 10:32:17;;;;;;;;;;;10.20;99.90;;;;;;4971473;28;19914;-89
2022/02/19 10:34:58;;;;;;;;;;;10.30;99.90;;;;;;4983660;28;20296;-92
2022/02/19 10:37:25;;;;;;;;;;;10.30;99.90;;;;;;4975246;28;19913;-91
2022/02/19 10:39:50;;;;;;;;;;;10.40;99.90;;;;;;4975457;28;19910;-92
2022/02/19 10:42:16;;;;;;;;;;;10.40;99.90;;;;;;4992711;28;19935;-91
2022/02/19 10:44:41;;;;;;;;;;;10.60;99.90;;;;;;4974681;28;19933;-91
2022/02/19 10:47:21;;;;;;;;;;;10.70;99.90;;;;;;4992143;28;20461;-91
2022/02/19 10:50:07;;;;;;;;;;;10.90;99.90;;;;;;4975227;28;20168;-91
2022/02/19 10:52:33;;;;;;;;;;;11.10;99.90;;;;;;4974897;28;19912;-92
2022/02/19 10:55:04;;;;;;;;;;;11.30;99.90;;;;;;4975283;28;19913;-93
2022/02/19 10:57:35;;;;;;;;;;;11.50;99.90;;;;;;4975145;28;19910;-91
2022/02/19 11:00:07;;;;;;;;;;;11.50;99.90;;;;;;4974618;28;19910;-91
2022/02/19 11:02:34;;;;;;;;;;;11.30;99.90;;;;;;4974684;28;19933;-92
2022/02/19 11:05:00;;;;;;;;;;;11.30;99.90;;;;;;4974588;28;19918;-92
2022/02/19 11:07:26;;;;;;;;;;;11.40;99.90;;;;;;4974917;28;19916;-92
2022/02/19 11:09:52;;;;;;;;;;;11.60;99.90;;;;;;4974804;28;19910;-93
2022/02/19 11:12:18;;;;;;;;;;;11.60;99.90;;;;;;4973770;28;19917;-89
2022/02/19 11:14:44;;;;;;;;;;;11.40;99.90;;;;;;4991146;28;19957;-92
2022/02/19 11:17:12;;;;;;;;;;;11.40;99.90;;;;;;4973974;28;19957;-92
2022/02/19 11:19:38;;;;;;;;;;;11.50;99.90;;;;;;4991684;28;19909;-92
2022/02/19 11:22:04;;;;;;;;;;;11.80;99.90;;;;;;4974568;28;20409;-93
2022/02/19 11:24:30;;;;;;;;;;;11.60;99.90;;;;;;4974397;28;19921;-93
2022/02/19 11:26:58;;;;;;;;;;;11.60;99.90;;;;;;4974298;28;19914;-91
2022/02/19 11:29:24;;;;;;;;;;;11.40;99.90;;;;;;4973773;28;19910;-92
2022/02/19 11:31:52;;;;;;;;;;;11.40;99.90;;;;;;4974162;28;19910;-92
2022/02/19 11:34:19;;;;;;;;;;;11.30;99.90;;;;;;4970880;28;19948;-92
2022/02/19 11:36:44;;;;;;;;;;;11.20;99.90;;;;;;4970917;28;19921;-91
2022/02/19 11:39:10;;;;;;;;;;;11.20;99.90;;;;;;4971176;28;19914;-89
2022/02/19 11:41:43;;;;;;;;;;;11.00;99.90;;;;;;4972792;28;19949;-92
2022/02/19 11:44:15;;;;;;;;;;;11.00;99.90;;;;;;4978358;28;20323;-91
2022/02/19 11:46:40;;;;;;;;;;;11.10;99.90;;;;;;4972779;28;19910;-91
2022/02/19 11:49:16;;;;;;;;;;;11.30;99.90;;;;;;4970672;28;20425;-92
2022/02/19 11:51:42;;;;;;;;;;;11.20;99.90;;;;;;4970741;28;20391;-91
2022/02/19 11:54:10;;;;;;;;;;;11.20;99.90;;;;;;4971691;28;19985;-91
2022/02/19 11:56:36;;;;;;;;;;;11.10;99.90;;;;;;4973019;28;19956;-92
2022/02/19 11:59:03;;;;;;;;;;;11.10;99.90;;;;;;4991131;28;19910;-92
2022/02/19 12:01:30;;;;;;;;;;;11.20;99.90;;;;;;4974644;28;19949;-93
2022/02/19 12:04:12;;;;;;;;;;;11.20;99.90;;;;;;4974009;28;19968;-92
2022/02/19 12:06:38;;;;;;;;;;;11.20;99.90;;;;;;4974912;28;20275;-92
2022/02/19 12:09:08;;;;;;;;;;;11.20;99.90;;;;;;4974829;28;19911;-94
2022/02/19 12:11:49;;;;;;;;;;;11.30;99.90;;;;;;4974201;28;19914;-92
2022/02/19 12:14:34;;;;;;;;;;;11.30;99.90;;;;;;4976588;28;19910;-92
2022/02/19 12:17:16;;;;;;;;;;;11.40;99.90;;;;;;4975366;28;19914;-92
2022/02/19 12:19:51;;;;;;;;;;;11.40;99.90;;;;;;4975016;28;19917;-93
2022/02/19 12:22:30;;;;;;;;;;;11.50;99.90;;;;;;4974866;28;20020;-92
2022/02/19 12:24:55;;;;;;;;;;;11.30;99.90;;;;;;4974552;28;19914;-92
2022/02/19 12:27:21;;;;;;;;;;;11.40;99.90;;;;;;4974450;28;19917;-93
2022/02/19 12:29:51;;;;;;;;;;;11.40;99.90;;;;;;4974632;28;19910;-93
2022/02/19 12:32:19;;;;;;;;;;;11.40;99.90;;;;;;4974464;28;19952;-93
2022/02/19 12:34:48;;;;;;;;;;;11.50;99.90;;;;;;4974414;28;19976;-93
2022/02/19 12:37:14;;;;;;;;;;;11.50;99.90;;;;;;4974966;28;20366;-92
2022/02/19 12:39:41;;;;;;;;;;;11.70;99.90;;;;;;4989529;28;19918;-92
2022/02/19 12:42:07;;;;;;;;;;;11.70;99.90;;;;;;4970969;28;20298;-92
2022/02/19 12:44:34;;;;;;;;;;;11.70;99.90;;;;;;4979090;28;19941;-92
2022/02/19 12:46:59;;;;;;;;;;;11.60;99.90;;;;;;5000406;28;19914;-95
2022/02/19 12:49:25;;;;;;;;;;;11.50;99.90;;;;;;4971978;28;19914;-93
2022/02/19 12:51:58;;;;;;;;;;;11.40;99.90;;;;;;4970087;28;19993;-91
2022/02/19 12:54:33;;;;;;;;;;;11.50;99.90;;;;;;4965763;28;19995;-92
2022/02/19 12:56:59;;;;;;;;;;;11.50;99.90;;;;;;4971850;28;19917;-92
2022/02/19 12:59:32;;;;;;;;;;;11.60;99.90;;;;;;4973627;28;19949;-95
2022/02/19 13:01:58;;;;;;;;;;;11.60;99.90;;;;;;4974317;28;19906;-92
2022/02/19 13:04:34;;;;;;;;;;;11.70;99.90;;;;;;4984013;28;20133;-93
2022/02/19 13:07:00;;;;;;;;;;;11.70;99.90;;;;;;4982663;28;20107;-92
2022/02/19 13:09:27;;;;;;;;;;;11.70;99.90;;;;;;4983266;28;19919;-91
2022/02/19 13:11:54;;;;;;;;;;;11.70;99.90;;;;;;4980996;28;19912;-92
2022/02/19 13:14:21;;;;;;;;;;;11.60;99.90;;;;;;4978638;28;19910;-91
2022/02/19 13:17:03;;;;;;;;;;;11.60;99.90;;;;;;4977948;28;19910;-91
2022/02/19 13:19:31;;;;;;;;;;;11.70;99.90;;;;;;4981195;28;20103;-92
2022/02/19 13:22:04;;;;;;;;;;;11.80;99.90;;;;;;4982889;28;19910;-92
2022/02/19 13:24:32;;;;;;;;;;;11.60;99.90;;;;;;4982814;28;19982;-91
2022/02/19 13:27:15;;;;;;;;;;;11.60;99.90;;;;;;4978280;28;20191;-92
2022/02/19 13:29:46;;;;;;;;;;;11.50;99.90;;;;;;4975614;28;19914;-92
2022/02/19 13:32:12;;;;;;;;;;;11.60;99.90;;;;;;4985602;28;19906;-91
2022/02/19 13:34:38;;;;;;;;;;;11.70;99.90;;;;;;4996574;28;19922;-92
2022/02/19 13:37:04;;;;;;;;;;;11.70;99.90;;;;;;4985827;28;20159;-91
2022/02/19 13:39:37;;;;;;;;;;;11.70;99.90;;;;;;4987056;28;20216;-93
2022/02/19 13:42:03;;;;;;;;;;;11.60;99.90;;;;;;5004674;28;19906;-91
2022/02/19 13:44:28;;;;;;;;;;;11.60;99.90;;;;;;4986832;28;20287;-92
2022/02/19 13:46:55;;;;;;;;;;;11.60;99.90;;;;;;4987507;28;19949;-92
2022/02/19 13:49:21;;;;;;;;;;;11.70;99.90;;;;;;4986951;28;20169;-92
2022/02/19 13:51:47;;;;;;;;;;;11.80;99.90;;;;;;4985370;28;20141;-92
2022/02/19 13:54:20;;;;;;;;;;;11.90;99.90;;;;;;4986958;28;19906;-94
2022/02/19 13:56:46;;;;;;;;;;;11.90;99.90;;;;;;4987118;28;19913;-92
2022/02/19 13:59:18;;;;;;;;;;;12.10;99.90;;;;;;4984001;28;19945;-92
2022/02/19 14:01:46;;;;;;;;;;;12.10;99.90;;;;;;4985014;28;19909;-93
2022/02/19 14:04:30;;;;;;;;;;;12.30;99.90;;;;;;4986374;28;20080;-93
2022/02/19 14:07:06;;;;;;;;;;;12.40;99.90;;;;;;4974431;28;19910;-92
2022/02/19 14:09:32;;;;;;;;;;;12.30;99.90;;;;;;4985325;28;19916;-93
2022/02/19 14:11:59;;;;;;;;;;;12.30;99.90;;;;;;4984617;28;19906;-92
2022/02/19 14:14:28;;;;;;;;;;;12.20;99.90;;;;;;4986456;28;20233;-93
2022/02/19 14:16:58;;;;;;;;;;;12.10;99.90;;;;;;4984846;28;20394;-94
2022/02/19 14:19:24;;;;;;;;;;;11.90;99.90;;;;;;4984330;28;19980;-92
2022/02/19 14:21:59;;;;;;;;;;;11.90;99.90;;;;;;4988030;28;19906;-93
2022/02/19 14:24:25;;;;;;;;;;;12.00;99.90;;;;;;5003021;28;19922;-93
2022/02/19 14:27:06;;;;;;;;;;;12.20;99.90;;;;;;4986111;28;19912;-93
2022/02/19 14:29:31;;;;;;;;;;;12.10;99.90;;;;;;4985706;28;19993;-93
2022/02/19 14:31:58;;;;;;;;;;;11.90;99.90;;;;;;4985746;28;20130;-93
2022/02/19 14:34:24;;;;;;;;;;;11.90;99.90;;;;;;4984531;28;19975;-93
2022/02/19 14:36:49;;;;;;;;;;;12.00;99.90;;;;;;4985470;28;20186;-92